Estación Meteorológica Peña el Pijo (Robertgarden) [ 01/30/23 13:39:14 CET ]

Fecha Hora Presion(HPa) Temp (°C) Humedad % Rocio (°C) Viento ( m/s) Direccion Lluvia 1Hora(mm) Lluvia 24H(mm) LLuvia Total(mm)
2010-Jun-11 01:01:14 1006.300 12.8 67 6.8         120.17
2010-Jun-11 02:01:17 1006.300 12.8 69 7.3         120.17
2010-Jun-11 03:03:19 1006.300 11.2 73 6.5         120.17
2010-Jun-11 04:01:21 1006.000 11.1 72 6.3         120.17
2010-Jun-11 05:01:14 1005.500 9.9 74 5.5         120.17
2010-Jun-11 06:01:14 1005.300 9.6 76 5.5         120.17
2010-Jun-11 07:01:12 1005.600 10.3 74 5.9         120.17
2010-Jun-11 08:01:14 1006.000 11.1 74 6.7         120.17
2010-Jun-11 09:01:17 1006.600 12.1 68 6.3         120.17
2010-Jun-11 10:01:11 1007.100 13.3 58 5.2         120.17
2010-Jun-11 11:01:14 1007.400 15.5 49 4.8         120.17
2010-Jun-11 12:01:14 1007.900 14.4 50 4.2         120.17
2010-Jun-11 13:01:13 1008.000 16.9 45 4.8         120.17
2010-Jun-11 14:01:14 1007.800 19.9 37 4.7         120.17
2010-Jun-11 15:01:14 1008.000 19.4 36 3.8 1.0 ENE     120.17
2010-Jun-11 16:01:16 1007.900 18.0 39 3.8         120.17
2010-Jun-11 17:01:17 1008.100 18.4 39 4.2         120.17
2010-Jun-11 18:01:17 1007.900 19.0 42 5.8         120.17
2010-Jun-11 19:01:14 1008.100 16.9 47 5.5         120.17
2010-Jun-11 20:01:13 1008.500 16.2 48 5.1         120.17
2010-Jun-11 21:01:16 1008.700 14.9 52 5.1         120.17
2010-Jun-11 22:01:14 1009.200 14.1 56 5.5         120.17
2010-Jun-11 23:01:16 1009.900 13.8 59 5.9         120.17

Temperatura Máxima:19°    Temperatura Mínima:
Presión Máxima:1009.900 Hpa    Presión Mínima:1005.300 Hpa


Volver